Time;durP1;ratioP1;P1;durP2;ratioP2;P2;SDS_P1;SDS_P2;PMS_P1;PMS_P2;Temp;Humidity;BMP_temperature;BMP_pressure;BME280_temperature;BME280_humidity;BME280_pressure;Samples;Min_cycle;Max_cycle;Signal;HPM_P1;HPM_P2
2021/04/20 00:01:37;;;;;;;9.63;7.80;;;8.90;79.00;;;;;;5049228;28;20533;-46
2021/04/20 00:04:07;;;;;;;12.77;7.70;;;8.90;79.00;;;;;;5049346;28;20512;-46
2021/04/20 00:06:34;;;;;;;9.20;7.73;;;8.80;79.00;;;;;;5047169;28;20533;-46
2021/04/20 00:09:04;;;;;;;11.87;8.70;;;8.80;79.00;;;;;;5049643;28;20965;-46
2021/04/20 00:11:31;;;;;;;9.50;8.00;;;8.80;79.00;;;;;;5066477;28;20534;-46
2021/04/20 00:13:57;;;;;;;14.93;7.93;;;8.80;79.00;;;;;;5048539;28;20469;-46
2021/04/20 00:16:26;;;;;;;8.50;7.60;;;8.70;79.10;;;;;;5065824;28;20611;-46
2021/04/20 00:18:52;;;;;;;11.67;8.70;;;8.70;79.10;;;;;;5050545;28;20841;-46
2021/04/20 00:21:18;;;;;;;8.50;7.23;;;8.70;79.10;;;;;;5066505;28;20858;-46
2021/04/20 00:23:45;;;;;;;11.33;8.70;;;8.60;79.20;;;;;;5048106;28;20542;-46
2021/04/20 00:26:11;;;;;;;11.00;7.80;;;8.60;79.20;;;;;;5050012;28;20506;-46
2021/04/20 00:28:37;;;;;;;9.30;7.57;;;8.60;79.20;;;;;;5047132;28;20546;-46
2021/04/20 00:31:05;;;;;;;10.37;8.17;;;8.60;79.20;;;;;;5049520;28;20464;-46
2021/04/20 00:33:31;;;;;;;10.93;8.50;;;8.50;79.30;;;;;;5065130;28;20947;-46
2021/04/20 00:35:58;;;;;;;10.13;7.67;;;;;;;;;;5050056;28;20670;-46
2021/04/20 00:38:25;;;;;;;12.70;8.87;;;8.50;79.40;;;;;;5048409;28;20500;-46
2021/04/20 00:40:51;;;;;;;11.50;8.77;;;8.50;79.30;;;;;;5046561;28;20469;-46
2021/04/20 00:43:18;;;;;;;11.27;8.90;;;8.40;79.40;;;;;;5047816;28;20829;-46
2021/04/20 00:45:44;;;;;;;11.37;8.17;;;8.40;79.50;;;;;;5046005;28;20466;-46
2021/04/20 00:48:10;;;;;;;11.23;8.60;;;8.40;79.60;;;;;;5048273;28;21129;-46
2021/04/20 00:50:39;;;;;;;10.70;8.80;;;8.40;79.60;;;;;;5050399;28;20473;-46
2021/04/20 00:53:08;;;;;;;11.70;9.03;;;8.40;79.60;;;;;;5050093;28;20465;-46
2021/04/20 00:55:35;;;;;;;12.20;7.97;;;8.30;79.70;;;;;;5047912;28;20463;-45
2021/04/20 00:58:02;;;;;;;12.47;9.00;;;8.30;79.80;;;;;;5044800;28;20474;-46
2021/04/20 01:00:30;;;;;;;15.30;9.37;;;8.30;79.80;;;;;;5046310;28;20490;-46
2021/04/20 01:02:58;;;;;;;11.70;8.50;;;8.30;79.70;;;;;;5049311;28;20486;-46
2021/04/20 01:05:29;;;;;;;14.50;8.67;;;8.20;79.60;;;;;;5047126;28;20450;-46
2021/04/20 01:08:07;;;;;;;23.47;15.60;;;8.20;79.70;;;;;;5047210;28;20550;-46
2021/04/20 01:10:35;;;;;;;26.67;16.27;;;8.20;79.60;;;;;;5047930;28;20549;-46
2021/04/20 01:13:04;;;;;;;17.33;12.47;;;8.10;79.40;;;;;;5043575;28;20462;-46
2021/04/20 01:15:31;;;;;;;18.97;13.00;;;8.10;79.20;;;;;;5065714;28;20493;-46
2021/04/20 01:18:08;;;;;;;14.47;11.10;;;8.10;79.10;;;;;;5045871;28;20480;-46
2021/04/20 01:20:35;;;;;;;14.93;9.67;;;8.00;79.10;;;;;;5045835;28;20454;-46
2021/04/20 01:23:02;;;;;;;11.30;8.50;;;8.00;79.10;;;;;;5044884;28;20490;-46
2021/04/20 01:25:29;;;;;;;10.07;7.97;;;7.90;79.30;;;;;;5048011;28;20457;-46
2021/04/20 01:27:56;;;;;;;11.13;8.30;;;7.90;79.30;;;;;;5046962;28;20474;-46
2021/04/20 01:30:22;;;;;;;10.43;8.70;;;7.90;79.30;;;;;;5048757;28;20450;-46
2021/04/20 01:32:51;;;;;;;11.50;8.23;;;7.80;79.30;;;;;;5048601;28;20464;-46
2021/04/20 01:35:17;;;;;;;14.97;9.90;;;7.80;79.30;;;;;;5062330;28;20977;-46
2021/04/20 01:37:43;;;;;;;13.13;9.23;;;7.80;79.30;;;;;;5047705;28;20466;-45
2021/04/20 01:40:10;;;;;;;17.47;10.10;;;7.80;79.50;;;;;;5062915;28;20459;-46
2021/04/20 01:42:36;;;;;;;12.47;8.77;;;7.70;79.70;;;;;;5047690;28;20494;-46
2021/04/20 01:45:07;;;;;;;12.57;9.00;;;7.70;79.80;;;;;;5064003;28;20549;-45
2021/04/20 01:47:33;;;;;;;13.13;8.90;;;7.70;79.90;;;;;;5044254;28;20458;-45
2021/04/20 01:50:01;;;;;;;12.73;9.70;;;7.60;79.90;;;;;;5046763;28;20481;-45
2021/04/20 01:52:27;;;;;;;13.77;9.63;;;7.60;80.00;;;;;;5046999;28;20454;-45
2021/04/20 01:54:54;;;;;;;13.33;10.00;;;7.60;80.10;;;;;;5043559;28;20451;-45
2021/04/20 01:57:22;;;;;;;12.77;9.20;;;7.60;80.10;;;;;;5046341;28;20463;-45
2021/04/20 01:59:49;;;;;;;15.63;9.40;;;7.50;80.20;;;;;;5046781;28;20747;-45
2021/04/20 02:02:16;;;;;;;12.70;10.27;;;7.50;80.40;;;;;;5043701;28;20494;-45
2021/04/20 02:04:42;;;;;;;11.63;9.50;;;7.50;80.40;;;;;;5047147;28;20455;-45
2021/04/20 02:07:08;;;;;;;15.47;9.80;;;7.50;80.50;;;;;;5046929;28;20458;-45
2021/04/20 02:09:34;;;;;;;13.97;10.40;;;7.50;80.60;;;;;;5060672;28;20455;-45
2021/04/20 02:12:01;;;;;;;13.60;9.57;;;7.50;80.90;;;;;;5048591;28;20450;-45
2021/04/20 02:14:27;;;;;;;15.20;10.73;;;7.50;80.90;;;;;;5046444;28;20963;-45
2021/04/20 02:16:56;;;;;;;12.80;8.93;;;7.50;81.20;;;;;;5045362;28;20851;-46
2021/04/20 02:19:23;;;;;;;13.33;9.10;;;7.50;81.30;;;;;;5045052;28;20462;-46
2021/04/20 02:21:51;;;;;;;12.63;9.57;;;7.50;81.20;;;;;;5044276;28;20570;-45
2021/04/20 02:24:17;;;;;;;13.23;10.43;;;7.50;81.20;;;;;;5046037;28;21019;-45
2021/04/20 02:26:44;;;;;;;10.13;8.90;;;7.50;81.10;;;;;;5045014;28;20545;-45
2021/04/20 02:29:11;;;;;;;14.17;10.23;;;7.60;80.90;;;;;;5061236;28;20545;-45
2021/04/20 02:31:42;;;;;;;11.27;9.17;;;7.60;80.70;;;;;;5045680;28;20464;-45
2021/04/20 02:34:11;;;;;;;9.80;8.30;;;7.50;80.60;;;;;;5044834;28;20649;-45
2021/04/20 02:36:42;;;;;;;12.07;9.27;;;7.50;80.50;;;;;;5044032;28;20820;-45
2021/04/20 02:39:10;;;;;;;14.90;11.00;;;7.40;80.60;;;;;;5046041;28;20450;-47
2021/04/20 02:41:39;;;;;;;13.10;9.47;;;7.40;80.40;;;;;;5043544;28;20486;-45
2021/04/20 02:44:07;;;;;;;14.97;10.77;;;7.40;80.50;;;;;;5027400;28;20462;-45
2021/04/20 02:46:37;;;;;;;15.10;10.03;;;7.30;80.50;;;;;;5046613;28;20811;-46
2021/04/20 02:49:04;;;;;;;14.00;10.77;;;7.30;80.50;;;;;;5045142;28;20617;-47
2021/04/20 02:51:33;;;;;;;16.50;10.93;;;7.20;80.60;;;;;;5044785;28;21062;-47
2021/04/20 02:54:00;;;;;;;15.57;10.80;;;7.20;80.70;;;;;;5044850;28;20553;-47
2021/04/20 02:56:26;;;;;;;15.90;10.80;;;7.20;80.70;;;;;;5045381;28;20454;-47
2021/04/20 02:58:53;;;;;;;15.63;10.10;;;7.20;80.80;;;;;;5044285;28;20469;-47
2021/04/20 03:01:24;;;;;;;13.07;9.40;;;7.10;80.90;;;;;;5042554;28;20459;-47
2021/04/20 03:03:51;;;;;;;15.70;11.23;;;7.10;81.00;;;;;;5046492;28;20458;-47
2021/04/20 03:06:20;;;;;;;14.80;10.60;;;7.10;81.10;;;;;;5046199;28;20535;-47
2021/04/20 03:08:48;;;;;;;15.47;10.60;;;7.10;81.10;;;;;;5046625;28;20490;-47
2021/04/20 03:11:23;;;;;;;15.37;10.67;;;7.10;81.10;;;;;;5046432;28;20461;-47
2021/04/20 03:13:50;;;;;;;13.40;10.00;;;7.00;81.30;;;;;;5044551;28;20951;-47
2021/04/20 03:16:28;;;;;;;18.20;11.37;;;7.00;81.30;;;;;;5043097;28;20514;-47
2021/04/20 03:18:56;;;;;;;15.50;10.50;;;7.00;81.30;;;;;;5043035;28;20471;-47
2021/04/20 03:21:24;;;;;;;17.07;9.83;;;7.00;81.50;;;;;;5044708;28;20971;-47
2021/04/20 03:23:54;;;;;;;14.87;10.43;;;7.00;81.50;;;;;;5047626;28;20492;-47
2021/04/20 03:26:24;;;;;;;15.53;11.23;;;7.00;81.50;;;;;;5050123;28;20951;-47
2021/04/20 03:28:58;;;;;;;16.20;10.67;;;6.90;81.50;;;;;;5065012;28;20466;-47
2021/04/20 03:31:26;;;;;;;16.20;10.40;;;6.90;81.30;;;;;;5048057;28;20454;-47
2021/04/20 03:34:01;;;;;;;17.40;11.03;;;6.90;81.30;;;;;;5050808;28;20458;-47
2021/04/20 03:36:35;;;;;;;15.80;11.10;;;6.90;81.30;;;;;;5048086;28;20513;-47
2021/04/20 03:39:09;;;;;;;14.20;10.70;;;6.90;81.30;;;;;;5049978;28;20456;-48
2021/04/20 03:41:58;;;;;;;14.50;10.33;;;6.90;81.30;;;;;;5047582;28;20885;-47
2021/04/20 03:44:30;;;;;;;14.50;10.63;;;6.80;81.30;;;;;;5063009;28;20459;-47
2021/04/20 03:47:01;;;;;;;18.83;12.07;;;6.80;81.30;;;;;;5048738;28;20466;-47
2021/04/20 03:49:37;;;;;;;16.40;11.43;;;6.80;81.30;;;;;;5048173;28;20886;-47
2021/04/20 03:52:11;;;;;;;17.07;11.93;;;6.70;81.30;;;;;;5047225;28;20459;-47
2021/04/20 03:54:42;;;;;;;15.13;10.50;;;6.70;81.30;;;;;;5062807;28;20462;-47
2021/04/20 03:57:10;;;;;;;16.00;10.93;;;6.70;81.40;;;;;;5050532;28;20969;-47
2021/04/20 03:59:37;;;;;;;14.23;10.70;;;6.70;81.40;;;;;;5046690;28;20465;-47
2021/04/20 04:02:06;;;;;;;15.40;10.80;;;6.70;81.40;;;;;;5050862;28;20490;-47
2021/04/20 04:04:33;;;;;;;16.30;10.90;;;6.70;81.50;;;;;;5050843;28;20454;-47
2021/04/20 04:07:02;;;;;;;18.63;12.07;;;6.60;81.50;;;;;;5047002;28;20486;-47
2021/04/20 04:09:29;;;;;;;17.07;11.60;;;6.60;81.50;;;;;;5049289;28;20537;-47
2021/04/20 04:11:58;;;;;;;17.97;11.60;;;6.60;81.50;;;;;;5048267;28;20815;-47
2021/04/20 04:14:28;;;;;;;18.57;13.23;;;6.60;81.50;;;;;;5047966;28;21014;-47
2021/04/20 04:17:00;;;;;;;17.67;12.13;;;6.60;81.50;;;;;;5050382;28;20621;-47
2021/04/20 04:19:36;;;;;;;20.47;13.40;;;6.50;81.50;;;;;;5045751;28;20462;-47
2021/04/20 04:22:28;;;;;;;20.90;12.60;;;6.50;81.50;;;;;;5048278;28;20843;-47
2021/04/20 04:24:56;;;;;;;18.70;13.10;;;6.50;81.50;;;;;;5046243;28;20501;-47
2021/04/20 04:27:25;;;;;;;21.00;14.30;;;6.50;81.60;;;;;;5050618;28;20454;-47
2021/04/20 04:29:55;;;;;;;20.43;13.67;;;6.50;81.70;;;;;;5045341;28;20462;-47
2021/04/20 04:32:23;;;;;;;20.70;13.43;;;6.50;81.70;;;;;;5046919;28;20488;-47
2021/04/20 04:34:50;;;;;;;19.60;14.30;;;6.40;81.80;;;;;;5058981;28;20447;-47
2021/04/20 04:37:18;;;;;;;18.43;14.30;;;6.40;81.90;;;;;;5049147;28;20469;-47
2021/04/20 04:39:45;;;;;;;20.63;14.90;;;6.40;81.90;;;;;;5049034;28;20939;-47
2021/04/20 04:42:12;;;;;;;24.97;14.57;;;6.40;81.90;;;;;;5049385;28;20486;-47
2021/04/20 04:44:39;;;;;;;18.47;13.87;;;6.40;81.90;;;;;;5045540;28;20457;-47
2021/04/20 04:47:07;;;;;;;21.90;14.60;;;6.40;82.00;;;;;;5047341;28;20553;-47
2021/04/20 04:49:36;;;;;;;19.47;13.57;;;6.40;82.00;;;;;;5049516;28;20473;-47
2021/04/20 04:52:03;;;;;;;21.03;13.40;;;6.40;82.10;;;;;;5044649;28;20463;-47
2021/04/20 04:54:31;;;;;;;17.27;12.50;;;6.40;82.20;;;;;;5048666;28;21023;-47
2021/04/20 04:57:00;;;;;;;20.73;13.60;;;6.40;82.30;;;;;;5045706;28;20454;-47
2021/04/20 04:59:27;;;;;;;22.03;14.60;;;6.40;82.40;;;;;;5047513;28;20557;-47
2021/04/20 05:01:56;;;;;;;22.03;15.00;;;6.50;82.50;;;;;;5043893;28;20502;-47
2021/04/20 05:04:24;;;;;;;20.97;13.83;;;6.50;82.50;;;;;;5049898;28;20465;-47
2021/04/20 05:06:52;;;;;;;24.83;14.80;;;6.50;82.50;;;;;;5047615;28;20537;-47
2021/04/20 05:09:23;;;;;;;20.50;14.17;;;6.60;82.70;;;;;;5047058;28;20455;-47
2021/04/20 05:11:51;;;;;;;19.60;13.10;;;6.60;82.60;;;;;;5047102;28;21003;-47
2021/04/20 05:14:22;;;;;;;25.80;15.77;;;6.60;82.70;;;;;;5062052;28;20466;-47
2021/04/20 05:16:53;;;;;;;22.23;15.07;;;6.60;82.80;;;;;;5046576;28;20552;-47
2021/04/20 05:19:32;;;;;;;21.80;15.80;;;6.60;82.80;;;;;;5047816;28;21033;-47
2021/04/20 05:22:00;;;;;;;21.10;13.67;;;6.60;82.90;;;;;;5047731;28;20532;-47
2021/04/20 05:24:27;;;;;;;22.50;15.27;;;6.60;82.90;;;;;;5046569;28;20965;-47
2021/04/20 05:26:57;;;;;;;21.57;15.63;;;6.70;82.90;;;;;;5046781;28;20469;-47
2021/04/20 05:29:24;;;;;;;23.80;15.73;;;6.70;82.70;;;;;;5046196;28;20455;-47
2021/04/20 05:31:51;;;;;;;24.67;17.43;;;6.70;82.70;;;;;;5045924;28;20455;-47
2021/04/20 05:34:20;;;;;;;25.60;15.83;;;6.80;82.40;;;;;;5049173;28;21006;-47
2021/04/20 05:36:47;;;;;;;26.20;15.10;;;6.90;82.30;;;;;;5048059;28;20458;-49
2021/04/20 05:39:16;;;;;;;25.83;15.77;;;6.90;82.30;;;;;;5047173;28;20477;-47
2021/04/20 05:41:43;;;;;;;21.40;15.77;;;6.90;82.50;;;;;;5044257;28;20468;-47
2021/04/20 05:44:12;;;;;;;25.70;15.10;;;7.00;82.50;;;;;;5046091;28;20459;-47
2021/04/20 05:46:41;;;;;;;20.67;15.57;;;7.00;82.50;;;;;;5044940;28;20825;-47
2021/04/20 05:49:09;;;;;;;18.60;15.20;;;7.00;82.70;;;;;;5048007;28;20446;-47
2021/04/20 05:51:40;;;;;;;23.43;15.10;;;7.10;82.70;;;;;;5050654;28;20450;-51
2021/04/20 05:54:08;;;;;;;23.33;15.20;;;7.10;82.80;;;;;;5049439;28;20451;-47
2021/04/20 05:56:34;;;;;;;23.10;14.97;;;7.20;82.80;;;;;;5048147;28;20953;-47
2021/04/20 05:59:05;;;;;;;26.17;16.13;;;7.20;83.10;;;;;;5046721;28;21299;-47
2021/04/20 06:01:35;;;;;;;23.03;15.67;;;7.30;83.10;;;;;;5047965;28;20913;-47
2021/04/20 06:04:09;;;;;;;20.40;15.50;;;7.40;83.10;;;;;;5046241;28;20525;-49
2021/04/20 06:06:39;;;;;;;22.70;14.30;;;7.50;83.20;;;;;;5048469;28;20457;-49
2021/04/20 06:09:07;;;;;;;22.60;16.57;;;7.60;83.10;;;;;;5048394;28;20479;-47
2021/04/20 06:11:34;;;;;;;20.50;15.17;;;7.60;83.10;;;;;;5044211;28;20454;-49
2021/04/20 06:14:00;;;;;;;22.17;16.47;;;7.70;83.20;;;;;;5047039;28;20446;-47
2021/04/20 06:16:27;;;;;;;22.87;16.10;;;7.80;83.10;;;;;;5045448;28;20954;-47
2021/04/20 06:18:55;;;;;;;26.60;15.93;;;7.90;83.00;;;;;;5045900;28;20458;-47
2021/04/20 06:21:23;;;;;;;25.77;16.43;;;7.90;83.10;;;;;;5043745;28;20455;-47
2021/04/20 06:23:50;;;;;;;19.00;14.27;;;8.00;83.10;;;;;;5055206;28;20514;-47
2021/04/20 06:26:18;;;;;;;26.50;15.00;;;8.00;83.10;;;;;;5044176;28;20462;-47
2021/04/20 06:28:44;;;;;;;18.17;14.93;;;8.10;83.10;;;;;;5047682;28;20496;-47
2021/04/20 06:31:14;;;;;;;20.33;15.80;;;8.20;83.00;;;;;;5051864;28;20508;-47
2021/04/20 06:33:41;;;;;;;20.57;14.67;;;8.30;82.90;;;;;;5040625;28;21006;-47
2021/04/20 06:36:08;;;;;;;19.90;14.73;;;8.40;82.80;;;;;;5048348;28;20501;-47
2021/04/20 06:38:38;;;;;;;21.60;15.63;;;8.50;82.70;;;;;;5040590;28;20539;-47
2021/04/20 06:41:07;;;;;;;19.57;14.63;;;8.60;82.70;;;;;;5048445;28;20490;-47
2021/04/20 06:44:11;;;;;;;23.30;16.00;;;8.60;82.50;;;;;;5046095;28;20514;-47
2021/04/20 06:46:42;;;;;;;26.80;15.63;;;8.80;81.80;;;;;;5046145;28;20452;-47
2021/04/20 06:49:22;;;;;;;19.93;14.30;;;8.90;81.60;;;;;;5045637;28;20960;-47
2021/04/20 06:51:52;;;;;;;22.90;15.70;;;9.00;81.30;;;;;;5045369;28;20967;-47
2021/04/20 06:54:26;;;;;;;24.00;16.10;;;9.10;80.90;;;;;;5047533;28;20457;-47
2021/04/20 06:57:15;;;;;;;24.43;14.97;;;9.20;80.70;;;;;;5044900;28;20465;-47
2021/04/20 06:59:48;;;;;;;21.30;14.33;;;9.40;80.30;;;;;;5042239;28;20463;-48
2021/04/20 07:02:36;;;;;;;22.77;15.40;;;9.50;80.10;;;;;;5045961;28;20577;-47
2021/04/20 07:05:08;;;;;;;20.50;16.13;;;9.60;79.70;;;;;;5049160;28;20453;-47
2021/04/20 07:07:38;;;;;;;24.53;17.50;;;9.80;79.50;;;;;;5048306;28;20461;-46
2021/04/20 07:10:19;;;;;;;24.10;16.40;;;9.90;79.20;;;;;;5046716;28;20560;-46
2021/04/20 07:12:48;;;;;;;20.33;15.60;;;10.00;78.50;;;;;;5045499;28;20520;-46
2021/04/20 07:15:21;;;;;;;21.60;16.07;;;10.20;77.40;;;;;;5045928;28;20967;-46
2021/04/20 07:18:05;;;;;;;20.63;15.40;;;10.30;76.80;;;;;;5047528;28;20573;-46
2021/04/20 07:20:55;;;;;;;23.10;16.17;;;10.40;76.90;;;;;;5046116;28;20539;-46
2021/04/20 07:23:30;;;;;;;21.87;15.23;;;10.60;76.80;;;;;;5046229;28;20840;-45
2021/04/20 07:26:15;;;;;;;19.50;14.00;;;10.80;75.90;;;;;;5045392;28;20449;-46
2021/04/20 07:28:54;;;;;;;25.93;16.90;;;10.90;75.60;;;;;;5045669;28;20459;-45
2021/04/20 07:31:48;;;;;;;24.27;16.27;;;11.00;75.20;;;;;;5046196;28;20458;-46
2021/04/20 07:34:32;;;;;;;21.27;15.43;;;11.20;74.60;;;;;;5061201;28;20458;-47
2021/04/20 07:37:34;;;;;;;25.80;18.10;;;11.50;73.80;;;;;;5045811;28;20458;-46
2021/04/20 07:40:13;;;;;;;24.60;15.97;;;11.60;72.80;;;;;;5047324;28;20461;-45
2021/04/20 07:43:08;;;;;;;22.37;16.23;;;11.80;72.20;;;;;;5043080;28;20687;-46
2021/04/20 07:45:44;;;;;;;20.80;15.03;;;12.00;71.40;;;;;;5047848;28;20447;-45
2021/04/20 07:48:35;;;;;;;24.23;15.80;;;12.20;71.30;;;;;;5045710;28;20537;-46
2021/04/20 07:51:08;;;;;;;22.87;16.93;;;12.40;70.60;;;;;;5047002;28;20462;-45
2021/04/20 07:53:43;;;;;;;23.37;17.40;;;12.60;70.20;;;;;;5046482;28;20529;-45
2021/04/20 07:56:20;;;;;;;25.03;17.30;;;12.80;69.70;;;;;;5045847;28;20458;-46
2021/04/20 07:58:50;;;;;;;24.93;16.17;;;12.90;68.80;;;;;;5044850;28;20462;-46
2021/04/20 08:01:44;;;;;;;22.23;15.17;;;13.10;68.30;;;;;;5047862;28;20465;-45
2021/04/20 08:04:16;;;;;;;22.43;16.90;;;13.30;67.50;;;;;;5045429;28;20517;-45
2021/04/20 08:06:45;;;;;;;24.00;17.20;;;13.50;66.80;;;;;;5046086;28;20438;-45
2021/04/20 08:09:19;;;;;;;24.93;17.63;;;13.70;66.00;;;;;;5048365;28;20450;-45
2021/04/20 08:11:48;;;;;;;24.50;17.00;;;13.90;65.00;;;;;;5048764;28;20484;-46
2021/04/20 08:14:27;;;;;;;23.50;16.53;;;14.10;64.90;;;;;;5047371;28;20458;-45
2021/04/20 08:17:06;;;;;;;23.57;17.57;;;14.30;64.20;;;;;;5050243;28;20577;-46
2021/04/20 08:19:42;;;;;;;23.43;16.40;;;14.50;63.10;;;;;;5044960;28;20935;-45
2021/04/20 08:22:12;;;;;;;25.10;17.10;;;14.80;62.30;;;;;;5050493;28;20482;-45
2021/04/20 08:24:54;;;;;;;26.60;17.63;;;15.00;61.70;;;;;;5048415;28;20951;-45
2021/04/20 08:28:17;;;;;;;20.97;17.33;;;15.20;60.70;;;;;;5049949;28;20518;-45
2021/04/20 08:30:58;;;;;;;23.63;17.63;;;15.50;59.70;;;;;;5028051;28;20903;-47
2021/04/20 08:33:32;;;;;;;26.13;17.77;;;15.70;59.40;;;;;;5064274;28;20465;-47
2021/04/20 08:36:03;;;;;;;26.37;19.20;;;15.90;58.60;;;;;;5048064;28;20831;-45
2021/04/20 08:38:49;;;;;;;27.47;16.83;;;16.10;58.30;;;;;;5049859;28;20458;-45
2021/04/20 08:41:22;;;;;;;28.87;19.37;;;16.30;58.00;;;;;;5049763;28;20488;-45
2021/04/20 08:44:20;;;;;;;24.53;18.17;;;16.60;57.30;;;;;;5050260;28;20489;-45
2021/04/20 08:46:59;;;;;;;24.83;18.03;;;16.80;57.10;;;;;;5048111;28;20528;-45
2021/04/20 08:49:37;;;;;;;23.93;17.47;;;17.00;55.70;;;;;;5049150;28;20459;-45
2021/04/20 08:52:40;;;;;;;22.30;18.70;;;17.10;55.90;;;;;;5061775;28;20505;-46
2021/04/20 08:55:30;;;;;;;26.50;19.17;;;17.40;55.50;;;;;;5049841;28;20442;-47
2021/04/20 08:58:28;;;;;;;27.63;18.80;;;17.70;54.10;;;;;;5049586;28;20461;-47
2021/04/20 09:01:13;;;;;;;28.77;18.27;;;17.90;52.90;;;;;;5046856;28;20470;-47
2021/04/20 09:04:04;;;;;;;28.70;17.27;;;18.20;51.70;;;;;;5043890;28;20490;-46
2021/04/20 09:06:33;;;;;;;21.30;17.17;;;18.40;50.20;;;;;;5052089;28;20453;-46
2021/04/20 09:09:08;;;;;;;26.03;19.17;;;18.60;49.80;;;;;;5049012;28;20959;-46
2021/04/20 09:11:54;;;;;;;23.40;17.27;;;18.90;49.80;;;;;;5048573;28;20458;-46
2021/04/20 09:14:38;;;;;;;24.40;15.97;;;19.30;49.30;;;;;;5048823;28;20484;-46
2021/04/20 09:17:19;;;;;;;19.90;15.87;;;19.70;48.40;;;;;;5050610;28;20509;-46
2021/04/20 09:19:58;;;;;;;21.60;16.90;;;20.10;47.60;;;;;;5048233;28;20460;-48
2021/04/20 09:22:49;;;;;;;20.93;16.33;;;20.50;46.70;;;;;;5049869;28;20501;-47
2021/04/20 09:25:58;;;;;;;26.90;17.30;;;20.90;45.50;;;;;;5050251;28;20451;-45
2021/04/20 09:28:32;;;;;;;24.00;16.27;;;21.30;45.00;;;;;;5049493;28;20458;-48
2021/04/20 09:31:08;;;;;;;23.43;16.50;;;21.60;44.80;;;;;;5052599;28;20442;-47
2021/04/20 09:33:46;;;;;;;21.60;16.63;;;22.00;44.10;;;;;;5051885;28;21145;-48
2021/04/20 09:36:13;;;;;;;21.00;14.67;;;22.30;43.60;;;;;;5048130;28;20451;-49
2021/04/20 09:38:45;;;;;;;21.23;15.87;;;22.60;43.20;;;;;;5063631;28;20446;-48
2021/04/20 09:41:14;;;;;;;19.80;14.90;;;22.80;42.20;;;;;;5047807;28;20454;-49
2021/04/20 09:44:09;;;;;;;18.30;15.00;;;23.00;41.40;;;;;;5050723;28;20478;-49
2021/04/20 09:46:53;;;;;;;20.47;14.83;;;23.40;41.20;;;;;;5030977;28;20454;-49
2021/04/20 09:49:48;;;;;;;20.40;14.23;;;23.60;40.90;;;;;;5051764;28;20454;-48
2021/04/20 09:52:28;;;;;;;15.13;11.80;;;23.80;39.90;;;;;;5046185;28;20958;-48
2021/04/20 09:55:10;;;;;;;18.63;14.53;;;24.00;38.60;;;;;;5051030;28;20965;-48
2021/04/20 09:57:42;;;;;;;19.33;14.83;;;24.20;38.90;;;;;;5048342;28;20523;-48
2021/04/20 10:00:14;;;;;;;17.60;14.10;;;24.30;38.90;;;;;;5049429;28;20533;-49
2021/04/20 10:03:22;;;;;;;18.37;14.27;;;24.40;38.80;;;;;;5050423;28;20509;-48
2021/04/20 10:05:55;;;;;;;15.53;13.07;;;;;;;;;;5049392;28;20519;-49
2021/04/20 10:08:50;;;;;;;16.77;12.70;;;25.00;38.30;;;;;;5047440;28;20985;-49
2021/04/20 10:11:26;;;;;;;14.80;11.90;;;25.30;38.00;;;;;;5047570;28;20454;-49
2021/04/20 10:14:12;;;;;;;12.50;10.17;;;25.50;38.00;;;;;;5048421;28;20457;-48
2021/04/20 10:16:52;;;;;;;13.50;11.63;;;25.30;37.00;;;;;;5049961;28;20470;-49
2021/04/20 10:19:44;;;;;;;16.77;12.53;;;24.60;36.70;;;;;;5050389;28;20456;-49
2021/04/20 10:22:30;;;;;;;13.40;11.00;;;24.10;38.70;;;;;;5047946;28;20452;-49
2021/04/20 10:25:04;;;;;;;11.97;9.97;;;24.00;39.00;;;;;;5050023;28;20454;-48
2021/04/20 10:27:35;;;;;;;14.90;11.90;;;23.90;39.50;;;;;;5048003;28;21026;-49
2021/04/20 10:30:17;;;;;;;17.10;13.50;;;23.90;39.40;;;;;;5046000;28;20455;-49
2021/04/20 10:32:53;;;;;;;15.40;12.47;;;24.00;38.80;;;;;;5047105;28;20458;-49
2021/04/20 10:35:31;;;;;;;17.83;14.10;;;24.10;38.90;;;;;;5042995;28;20461;-49
2021/04/20 10:38:00;;;;;;;16.53;12.73;;;24.20;38.50;;;;;;5049893;28;20503;-47
2021/04/20 10:40:36;;;;;;;20.63;16.70;;;24.30;39.00;;;;;;5047595;28;20515;-47
2021/04/20 10:43:09;;;;;;;23.10;18.17;;;24.40;38.90;;;;;;5048016;28;20484;-49
2021/04/20 10:45:37;;;;;;;20.40;16.27;;;24.40;38.90;;;;;;5049648;28;20458;-49
2021/04/20 10:48:05;;;;;;;21.83;17.93;;;24.40;39.60;;;;;;5049011;28;20533;-49
2021/04/20 10:50:34;;;;;;;21.60;17.00;;;24.40;39.50;;;;;;5049130;28;20457;-48
2021/04/20 10:53:17;;;;;;;19.90;16.30;;;24.40;39.90;;;;;;5045993;28;20454;-49
2021/04/20 10:56:06;;;;;;;19.40;16.07;;;24.40;39.60;;;;;;5046893;28;20454;-49
2021/04/20 10:58:35;;;;;;;20.50;15.30;;;24.20;39.20;;;;;;5048769;28;20453;-48
2021/04/20 11:01:02;;;;;;;20.13;14.40;;;24.00;39.80;;;;;;5047981;28;20454;-48
2021/04/20 11:03:34;;;;;;;17.73;14.27;;;23.60;40.00;;;;;;5047183;28;20482;-48
2021/04/20 11:06:06;;;;;;;18.37;14.57;;;23.40;40.30;;;;;;5048606;28;20470;-48
2021/04/20 11:08:43;;;;;;;19.20;15.00;;;23.30;40.00;;;;;;5045909;28;20636;-48
2021/04/20 11:11:21;;;;;;;18.30;14.70;;;23.20;40.40;;;;;;5048313;28;20450;-48
2021/04/20 11:13:49;;;;;;;16.50;13.23;;;22.90;40.40;;;;;;5045925;28;21017;-48
2021/04/20 11:16:26;;;;;;;17.77;13.37;;;22.70;41.00;;;;;;5047478;28;20476;-49
2021/04/20 11:19:01;;;;;;;18.40;14.73;;;22.60;40.90;;;;;;5065384;28;20466;-48
2021/04/20 11:21:33;;;;;;;15.30;13.10;;;22.60;40.90;;;;;;5048604;28;20450;-48
2021/04/20 11:24:25;;;;;;;15.43;12.20;;;22.50;40.60;;;;;;5050634;28;20516;-48
2021/04/20 11:26:58;;;;;;;12.97;11.37;;;22.50;40.60;;;;;;5045133;28;21213;-48
2021/04/20 11:29:28;;;;;;;15.80;12.90;;;22.50;40.10;;;;;;5049291;28;20449;-48
2021/04/20 11:31:57;;;;;;;15.37;12.10;;;22.40;40.50;;;;;;5048395;28;20485;-48
2021/04/20 11:34:31;;;;;;;12.77;9.93;;;22.20;39.80;;;;;;5047849;28;20459;-48
2021/04/20 11:37:04;;;;;;;14.50;11.20;;;22.10;40.30;;;;;;5046872;28;20490;-48
2021/04/20 11:39:36;;;;;;;13.57;11.27;;;22.10;40.70;;;;;;5048266;28;20458;-48
2021/04/20 11:42:26;;;;;;;14.27;11.47;;;22.00;40.60;;;;;;5050324;28;20456;-48
2021/04/20 11:44:59;;;;;;;14.53;11.63;;;21.90;40.30;;;;;;5052978;28;20922;-48
2021/04/20 11:47:26;;;;;;;15.50;10.77;;;21.90;39.60;;;;;;5054356;28;20442;-48
2021/04/20 11:49:58;;;;;;;15.57;11.23;;;21.70;40.00;;;;;;5051596;28;20466;-48
2021/04/20 11:52:29;;;;;;;11.47;9.93;;;21.60;40.60;;;;;;5068059;28;20446;-48
2021/04/20 11:55:11;;;;;;;12.93;10.17;;;21.50;40.70;;;;;;5052583;28;21020;-48
2021/04/20 11:57:39;;;;;;;11.20;9.40;;;21.50;39.80;;;;;;5053777;28;20450;-48
2021/04/20 12:00:07;;;;;;;12.40;9.23;;;21.40;40.30;;;;;;5051743;28;20938;-48
2021/04/20 12:02:34;;;;;;;11.37;9.03;;;21.30;40.10;;;;;;5051468;28;20963;-49
2021/04/20 12:05:08;;;;;;;9.80;8.40;;;21.10;40.50;;;;;;5057816;28;20446;-48
2021/04/20 12:07:35;;;;;;;11.40;8.80;;;21.00;39.70;;;;;;5068240;28;20788;-48
2021/04/20 12:10:15;;;;;;;10.17;8.03;;;20.90;40.20;;;;;;5053587;28;20454;-48
2021/04/20 12:12:42;;;;;;;10.27;7.63;;;21.00;40.20;;;;;;5050733;28;20805;-48
2021/04/20 12:15:14;;;;;;;11.17;8.20;;;21.00;39.30;;;;;;5051095;28;20915;-48
2021/04/20 12:17:42;;;;;;;9.73;7.13;;;21.20;39.00;;;;;;5061786;28;20666;-49
2021/04/20 12:20:13;;;;;;;10.33;8.70;;;21.30;39.00;;;;;;5051469;28;20459;-49
2021/04/20 12:22:40;;;;;;;11.10;8.63;;;21.40;39.00;;;;;;5048459;28;20474;-48
2021/04/20 12:25:08;;;;;;;10.43;8.77;;;21.40;39.10;;;;;;5048604;28;20541;-49
2021/04/20 12:27:35;;;;;;;11.50;9.23;;;21.40;40.00;;;;;;5052549;28;20452;-48
2021/04/20 12:30:03;;;;;;;14.80;9.23;;;21.50;40.10;;;;;;5052086;28;20454;-48
2021/04/20 12:32:41;;;;;;;11.43;9.00;;;21.50;40.40;;;;;;5047455;28;20865;-49
2021/04/20 12:35:09;;;;;;;11.20;8.20;;;21.60;38.90;;;;;;5050169;28;20548;-48
2021/04/20 12:37:36;;;;;;;11.80;9.67;;;21.70;38.40;;;;;;5051569;28;20454;-49
2021/04/20 12:40:09;;;;;;;11.43;9.63;;;21.70;39.30;;;;;;5050389;28;20462;-48
2021/04/20 12:42:56;;;;;;;12.50;9.77;;;21.80;38.30;;;;;;5051781;28;20556;-48
2021/04/20 12:45:26;;;;;;;8.80;7.20;;;21.80;39.60;;;;;;5048073;28;20450;-48
2021/04/20 12:47:56;;;;;;;9.07;7.20;;;21.60;37.80;;;;;;5050032;28;20489;-48
2021/04/20 12:50:35;;;;;;;12.10;9.23;;;21.60;38.00;;;;;;5048795;28;20453;-49
2021/04/20 12:53:05;;;;;;;14.73;11.80;;;21.40;38.90;;;;;;5046449;28;20820;-48
2021/04/20 12:55:34;;;;;;;13.30;9.60;;;21.10;39.80;;;;;;5047302;28;20493;-48
2021/04/20 12:58:11;;;;;;;13.50;9.90;;;20.80;40.40;;;;;;5048956;28;20458;-49
2021/04/20 13:00:39;;;;;;;11.20;8.00;;;20.50;41.30;;;;;;5048180;28;20557;-49
2021/04/20 13:03:06;;;;;;;10.33;8.60;;;20.20;41.20;;;;;;5047622;28;20584;-49
2021/04/20 13:05:35;;;;;;;12.27;9.50;;;20.00;41.20;;;;;;5049780;28;20457;-48